createdAt,value
2022-10-11T00:00:44.474Z,7.57
2022-10-11T00:03:33.495Z,7.00
2022-10-11T00:06:03.851Z,6.43
2022-10-11T00:08:32.828Z,7.18
2022-10-11T00:11:02.166Z,6.72
2022-10-11T00:13:30.516Z,6.45
2022-10-11T00:15:58.897Z,6.72
2022-10-11T00:18:46.560Z,6.93
2022-10-11T00:21:16.011Z,7.15
2022-10-11T00:23:47.310Z,6.22
2022-10-11T00:28:44.037Z,6.68
2022-10-11T00:31:14.830Z,6.30
2022-10-11T00:33:43.143Z,6.32
2022-10-11T00:36:14.557Z,6.35
2022-10-11T00:41:12.264Z,6.75
2022-10-11T00:43:40.639Z,6.13
2022-10-11T00:46:27.970Z,6.93
2022-10-11T00:49:00.610Z,5.82
2022-10-11T00:51:37.828Z,5.82
2022-10-11T00:54:07.950Z,5.82
2022-10-11T00:56:39.686Z,5.93
2022-10-11T00:59:11.700Z,5.57
2022-10-11T01:01:39.932Z,5.40
2022-10-11T01:04:08.657Z,5.40
2022-10-11T01:06:38.105Z,5.22
2022-10-11T01:09:06.652Z,5.50
2022-10-11T01:11:37.697Z,4.75
2022-10-11T01:14:37.703Z,4.90
2022-10-11T01:17:12.073Z,4.80
2022-10-11T01:19:53.993Z,4.47
2022-10-11T01:22:34.443Z,4.78
2022-10-11T01:25:16.731Z,4.80
2022-10-11T01:27:52.202Z,4.57
2022-10-11T01:30:25.567Z,4.70
2022-10-11T01:33:02.117Z,4.57
2022-10-11T01:35:35.207Z,3.95
2022-10-11T01:38:08.317Z,4.43
2022-10-11T01:40:40.241Z,4.03
2022-10-11T01:43:09.042Z,4.05
2022-10-11T01:45:39.294Z,3.78
2022-10-11T01:48:09.383Z,4.00
2022-10-11T01:50:41.918Z,4.07
2022-10-11T01:53:30.968Z,3.83
2022-10-11T01:56:05.449Z,3.75
2022-10-11T01:58:39.485Z,3.20
2022-10-11T02:01:16.928Z,3.25
2022-10-11T02:03:48.831Z,3.85
2022-10-11T02:06:21.886Z,3.95
2022-10-11T02:08:54.810Z,3.80
2022-10-11T02:11:26.530Z,3.30
2022-10-11T02:13:58.536Z,3.38
2022-10-11T02:16:31.493Z,4.05
2022-10-11T02:19:00.797Z,3.55
2022-10-11T02:21:29.767Z,3.63
2022-10-11T02:24:01.386Z,3.70
2022-10-11T02:26:32.437Z,3.72
2022-10-11T02:29:02.547Z,3.55
2022-10-11T02:31:35.753Z,3.60
2022-10-11T02:34:07.898Z,3.92
2022-10-11T02:36:40.907Z,4.07
2022-10-11T02:39:15.534Z,5.93
2022-10-11T02:41:43.922Z,3.97
2022-10-11T02:44:15.468Z,3.30
2022-10-11T02:46:46.614Z,3.53
2022-10-11T02:49:15.495Z,3.30
2022-10-11T02:51:43.683Z,3.28
2022-10-11T02:54:11.883Z,4.13
2022-10-11T02:56:40.396Z,3.65
2022-10-11T02:59:08.468Z,3.13
2022-10-11T03:01:36.703Z,3.22
2022-10-11T03:04:06.756Z,3.28
2022-10-11T03:06:34.821Z,3.70
2022-10-11T03:09:02.857Z,3.00
2022-10-11T03:11:31.184Z,3.08
2022-10-11T03:13:59.383Z,3.40
2022-10-11T03:16:27.610Z,3.25
2022-10-11T03:18:55.948Z,2.97
2022-10-11T03:21:25.822Z,3.50
2022-10-11T03:23:54.224Z,3.63
2022-10-11T03:26:22.450Z,3.42
2022-10-11T03:28:50.614Z,3.40
2022-10-11T03:31:20.686Z,3.72
2022-10-11T03:33:48.983Z,3.28
2022-10-11T03:36:17.574Z,3.70
2022-10-11T03:38:46.976Z,3.63
2022-10-11T03:41:15.374Z,3.42
2022-10-11T03:43:43.548Z,3.33
2022-10-11T03:46:11.781Z,3.20
2022-10-11T03:48:40.345Z,3.40
2022-10-11T03:51:08.375Z,3.00
2022-10-11T03:53:36.452Z,3.05
2022-10-11T03:56:08.608Z,3.45
2022-10-11T03:58:36.910Z,2.97
2022-10-11T04:01:05.194Z,3.80
2022-10-11T04:03:33.400Z,3.33
2022-10-11T04:06:02.347Z,3.65
2022-10-11T04:08:30.859Z,3.80
2022-10-11T04:10:59.296Z,3.55
2022-10-11T04:13:28.964Z,3.50
2022-10-11T04:15:57.497Z,4.00
2022-10-11T04:18:25.593Z,3.67
2022-10-11T04:20:53.741Z,3.30
2022-10-11T04:23:22.067Z,3.83
2022-10-11T04:25:50.257Z,3.22
2022-10-11T04:28:18.459Z,3.33
2022-10-11T04:30:48.369Z,3.28
2022-10-11T04:33:16.595Z,4.05
2022-10-11T04:35:44.915Z,3.38
2022-10-11T04:38:13.272Z,3.58
2022-10-11T04:40:41.456Z,3.38
2022-10-11T04:43:09.718Z,3.85
2022-10-11T04:45:38.201Z,3.38
2022-10-11T04:48:08.019Z,3.92
2022-10-11T04:50:36.330Z,4.40
2022-10-11T04:53:04.617Z,4.40
2022-10-11T04:55:32.745Z,4.70
2022-10-11T04:58:02.172Z,4.28
2022-10-11T05:00:30.574Z,5.32
2022-10-11T05:03:01.674Z,4.68
2022-10-11T05:05:31.185Z,4.50
2022-10-11T05:07:59.576Z,4.57
2022-10-11T05:10:28.050Z,4.20
2022-10-11T05:12:56.336Z,4.50
2022-10-11T05:15:24.974Z,4.82
2022-10-11T05:17:53.153Z,4.30
2022-10-11T05:20:21.296Z,5.00
2022-10-11T05:22:50.965Z,5.25
2022-10-11T05:25:19.226Z,4.53
2022-10-11T05:27:47.330Z,5.05
2022-10-11T05:30:15.632Z,4.95
2022-10-11T05:32:43.798Z,5.03
2022-10-11T05:35:12.112Z,5.30
2022-10-11T05:37:40.343Z,5.70
2022-10-11T05:40:12.068Z,4.70
2022-10-11T05:42:40.850Z,5.35
2022-10-11T05:45:09.849Z,5.35
2022-10-11T05:47:38.059Z,5.75
2022-10-11T05:50:06.937Z,6.35
2022-10-11T05:52:35.130Z,6.18
2022-10-11T05:55:04.031Z,6.00
2022-10-11T05:57:33.861Z,6.55
2022-10-11T06:00:02.077Z,6.85
2022-10-11T06:02:30.156Z,7.07
2022-10-11T06:04:58.423Z,6.90
2022-10-11T06:07:26.609Z,6.82
2022-10-11T06:09:54.671Z,8.30
2022-10-11T06:12:22.957Z,7.25
2022-10-11T06:14:52.510Z,7.15
2022-10-11T06:17:20.609Z,7.43
2022-10-11T06:19:48.837Z,7.32
2022-10-11T06:22:16.973Z,6.00
2022-10-11T06:24:45.159Z,6.57
2022-10-11T06:27:14.234Z,6.93
2022-10-11T06:29:42.510Z,6.93
2022-10-11T06:32:13.331Z,7.10
2022-10-11T06:34:41.437Z,6.50
2022-10-11T06:37:09.563Z,6.13
2022-10-11T06:39:38.047Z,6.38
2022-10-11T06:42:06.161Z,6.45
2022-10-11T06:44:34.369Z,7.22
2022-10-11T06:47:02.691Z,7.47
2022-10-11T06:49:32.152Z,7.00
2022-10-11T06:52:00.358Z,6.90
2022-10-11T06:54:28.832Z,7.50
2022-10-11T06:56:56.963Z,7.45
2022-10-11T06:59:25.107Z,8.80
2022-10-11T07:01:53.566Z,8.82
2022-10-11T07:04:21.688Z,8.57
2022-10-11T07:06:51.429Z,8.40
2022-10-11T07:09:19.881Z,8.30
2022-10-11T07:11:48.996Z,7.95
2022-10-11T07:14:17.254Z,7.25
2022-10-11T07:16:45.703Z,7.43
2022-10-11T07:19:13.910Z,7.28
2022-10-11T07:21:42.879Z,6.55
2022-10-11T07:24:12.665Z,6.45
2022-10-11T07:26:41.122Z,6.22
2022-10-11T07:29:11.316Z,6.85
2022-10-11T07:31:41.632Z,7.28
2022-10-11T07:34:10.410Z,6.60
2022-10-11T07:36:38.588Z,6.45
2022-10-11T07:39:08.899Z,7.22
2022-10-11T07:41:44.628Z,7.15
2022-10-11T07:44:14.456Z,7.13
2022-10-11T07:46:42.622Z,7.70
2022-10-11T07:49:10.929Z,8.60
2022-10-11T07:51:39.345Z,7.75
2022-10-11T07:54:07.731Z,8.23
2022-10-11T07:56:36.102Z,7.32
2022-10-11T07:59:06.405Z,7.15
2022-10-11T08:01:35.094Z,8.20
2022-10-11T08:04:03.383Z,8.68
2022-10-11T08:06:32.882Z,8.48
2022-10-11T08:09:02.403Z,7.82
2022-10-11T08:11:32.567Z,7.07
2022-10-11T08:14:01.955Z,6.85
2022-10-11T08:16:31.651Z,5.85
2022-10-11T08:19:00.954Z,6.38
2022-10-11T08:21:29.682Z,6.20
2022-10-11T08:23:58.546Z,6.65
2022-10-11T08:26:26.766Z,5.57
2022-10-11T08:28:55.087Z,7.50
2022-10-11T08:31:23.338Z,7.55
2022-10-11T08:33:52.818Z,7.65
2022-10-11T08:36:21.193Z,7.97
2022-10-11T08:38:49.289Z,7.70
2022-10-11T08:41:27.077Z,8.93
2022-10-11T08:44:01.281Z,9.82
2022-10-11T08:46:32.035Z,9.00
2022-10-11T08:49:02.410Z,8.65
2022-10-11T08:51:36.920Z,9.15
2022-10-11T08:54:08.180Z,8.52
2022-10-11T08:59:09.851Z,9.40
2022-10-11T09:01:40.184Z,11.27
2022-10-11T09:04:15.076Z,11.32
2022-10-11T09:06:49.044Z,9.52
2022-10-11T09:09:33.450Z,11.18
2022-10-11T09:12:11.045Z,12.25
2022-10-11T09:14:59.444Z,10.77
2022-10-11T09:17:37.992Z,11.00
2022-10-11T09:20:32.692Z,11.05
2022-10-11T09:23:05.032Z,10.13
2022-10-11T09:25:35.915Z,11.05
2022-10-11T09:28:15.320Z,10.43
2022-10-11T09:30:49.220Z,10.43
2022-10-11T09:33:22.858Z,10.73
2022-10-11T09:35:54.125Z,8.63
2022-10-11T09:38:37.454Z,9.30
2022-10-11T09:41:10.980Z,10.38
2022-10-11T09:43:39.449Z,9.07
2022-10-11T09:46:19.334Z,9.73
2022-10-11T09:48:48.292Z,9.45
2022-10-11T09:51:22.669Z,9.70
2022-10-11T09:53:54.630Z,9.98
2022-10-11T09:56:23.546Z,9.60
2022-10-11T09:59:07.884Z,10.10
2022-10-11T10:01:36.098Z,11.73
2022-10-11T10:04:10.313Z,10.38
2022-10-11T10:06:40.987Z,10.55
2022-10-11T10:09:27.119Z,10.05
2022-10-11T10:11:56.118Z,10.95
2022-10-11T10:14:28.238Z,12.05
2022-10-11T10:17:02.344Z,11.98
2022-10-11T10:19:30.945Z,10.30
2022-10-11T10:22:00.648Z,9.07
2022-10-11T10:24:37.185Z,9.38
2022-10-11T10:27:17.048Z,6.88
2022-10-11T10:29:45.952Z,5.65
2022-10-11T10:32:15.572Z,5.38
2022-10-11T10:34:55.410Z,5.85
2022-10-11T10:37:28.668Z,6.05
2022-10-11T10:40:00.827Z,5.97
2022-10-11T10:42:29.564Z,6.40
2022-10-11T10:44:59.735Z,5.88
2022-10-11T10:47:50.679Z,5.95
2022-10-11T10:50:24.601Z,6.40
2022-10-11T10:53:05.254Z,6.78
2022-10-11T10:55:36.785Z,5.93
2022-10-11T10:58:09.788Z,7.53
2022-10-11T11:00:44.484Z,7.72
2022-10-11T11:03:17.793Z,6.28
2022-10-11T11:05:49.458Z,5.57
2022-10-11T11:08:34.493Z,5.05
2022-10-11T11:11:07.493Z,5.93
2022-10-11T11:13:40.422Z,5.90
2022-10-11T11:16:15.706Z,5.40
2022-10-11T11:18:48.179Z,5.72
2022-10-11T11:21:27.137Z,6.63
2022-10-11T11:24:04.376Z,5.10
2022-10-11T11:26:39.711Z,4.53
2022-10-11T11:29:18.439Z,5.20
2022-10-11T11:32:02.656Z,4.70
2022-10-11T11:34:37.168Z,4.90
2022-10-11T11:37:07.844Z,5.43
2022-10-11T11:39:43.482Z,5.18
2022-10-11T11:42:14.713Z,4.13
2022-10-11T11:44:45.353Z,4.28
2022-10-11T11:47:17.976Z,4.70
2022-10-11T11:49:49.306Z,4.00
2022-10-11T11:52:24.184Z,4.20
2022-10-11T11:55:03.806Z,3.90
2022-10-11T11:57:43.848Z,4.00
2022-10-11T12:00:16.810Z,3.58
2022-10-11T12:02:46.873Z,3.80
2022-10-11T12:05:18.146Z,4.15
2022-10-11T12:07:53.904Z,3.30
2022-10-11T12:10:30.362Z,3.38
2022-10-11T12:13:20.676Z,2.90
2022-10-11T12:16:01.574Z,3.80
2022-10-11T12:18:30.832Z,3.78
2022-10-11T12:21:06.125Z,2.80
2022-10-11T12:23:46.169Z,2.65
2022-10-11T12:26:49.433Z,2.60
2022-10-11T12:29:45.869Z,2.75
2022-10-11T12:32:53.144Z,3.00
2022-10-11T12:35:51.681Z,3.28
2022-10-11T12:38:22.528Z,2.60
2022-10-11T12:40:54.469Z,2.85
2022-10-11T12:43:29.104Z,3.55
2022-10-11T12:45:57.329Z,2.85
2022-10-11T12:48:41.186Z,2.90
2022-10-11T12:51:29.513Z,3.13
2022-10-11T12:54:27.342Z,2.60
2022-10-11T12:57:25.463Z,2.33
2022-10-11T12:59:55.290Z,3.30
2022-10-11T13:02:29.155Z,3.83
2022-10-11T13:05:08.746Z,3.80
2022-10-11T13:07:37.096Z,3.30
2022-10-11T13:10:06.806Z,2.65
2022-10-11T13:12:38.117Z,2.65
2022-10-11T13:15:09.879Z,2.50
2022-10-11T13:17:40.936Z,4.15
2022-10-11T13:20:18.292Z,3.42
2022-10-11T13:22:48.384Z,2.78
2022-10-11T13:25:18.629Z,2.88
2022-10-11T13:27:47.172Z,2.60
2022-10-11T13:30:20.063Z,4.00
2022-10-11T13:32:48.855Z,2.75
2022-10-11T13:35:23.827Z,3.28
2022-10-11T13:37:53.540Z,2.70
2022-10-11T13:40:22.838Z,2.70
2022-10-11T13:42:53.328Z,2.90
2022-10-11T13:45:25.378Z,2.53
2022-10-11T13:47:55.426Z,2.53
2022-10-11T13:50:31.863Z,2.47
2022-10-11T13:53:02.263Z,1.90
2022-10-11T13:55:34.078Z,2.78
2022-10-11T14:00:35.295Z,2.13
2022-10-11T14:03:06.773Z,2.10
2022-10-11T14:05:39.337Z,1.90
2022-10-11T14:08:09.152Z,2.22
2022-10-11T14:10:37.338Z,2.47
2022-10-11T14:13:24.092Z,2.58
2022-10-11T14:16:07.948Z,2.72
2022-10-11T14:18:41.864Z,2.38
2022-10-11T14:21:34.858Z,2.40
2022-10-11T14:24:06.921Z,2.17
2022-10-11T14:26:38.741Z,2.72
2022-10-11T14:29:09.783Z,2.60
2022-10-11T14:31:41.969Z,2.45
2022-10-11T14:34:16.180Z,2.67
2022-10-11T14:36:44.579Z,2.30
2022-10-11T14:39:16.344Z,2.50
2022-10-11T14:41:44.723Z,2.30
2022-10-11T14:44:13.358Z,2.50
2022-10-11T14:46:42.850Z,2.53
2022-10-11T14:49:14.470Z,2.35
2022-10-11T14:51:43.506Z,2.50
2022-10-11T14:54:11.969Z,2.58
2022-10-11T14:56:40.398Z,2.00
2022-10-11T14:59:08.592Z,2.20
2022-10-11T15:01:37.028Z,2.17
2022-10-11T15:04:06.756Z,1.88
2022-10-11T15:06:38.085Z,2.45
2022-10-11T15:09:06.923Z,1.80
2022-10-11T15:11:35.642Z,1.88
2022-10-11T15:14:04.030Z,2.00
2022-10-11T15:16:32.484Z,4.85
2022-10-11T15:19:01.434Z,12.13
2022-10-11T15:21:31.141Z,7.05
2022-10-11T15:23:59.458Z,3.10
2022-10-11T15:26:29.761Z,2.08
2022-10-11T15:28:58.868Z,1.92
2022-10-11T15:31:27.055Z,2.00
2022-10-11T15:33:59.502Z,1.88
2022-10-11T15:36:28.715Z,2.05
2022-10-11T15:38:58.634Z,2.25
2022-10-11T15:41:26.672Z,2.20
2022-10-11T15:43:55.160Z,2.28
2022-10-11T15:46:23.860Z,6.57
2022-10-11T15:48:52.962Z,7.25
2022-10-11T15:51:21.352Z,3.83
2022-10-11T15:53:49.725Z,3.10
2022-10-11T15:56:19.818Z,2.92
2022-10-11T15:58:48.028Z,3.83
2022-10-11T16:01:18.606Z,3.72
2022-10-11T16:03:47.785Z,3.83
2022-10-11T16:06:16.305Z,3.40
2022-10-11T16:08:44.829Z,2.85
2022-10-11T16:11:13.436Z,3.38
2022-10-11T16:13:43.398Z,3.53
2022-10-11T16:16:13.439Z,4.63
2022-10-11T16:18:41.901Z,5.55
2022-10-11T16:21:11.877Z,4.65
2022-10-11T16:23:40.254Z,4.50
2022-10-11T16:26:10.447Z,4.18
2022-10-11T16:28:39.369Z,4.43
2022-10-11T16:31:10.111Z,4.28
2022-10-11T16:33:45.912Z,3.65
2022-10-11T16:36:36.204Z,5.38
2022-10-11T16:39:09.756Z,10.98
2022-10-11T16:41:38.148Z,12.98
2022-10-11T16:44:07.461Z,11.10
2022-10-11T16:46:36.871Z,10.88
2022-10-11T16:49:05.330Z,6.80
2022-10-11T16:51:33.704Z,5.25
2022-10-11T16:54:02.137Z,4.93
2022-10-11T16:56:30.448Z,5.28
2022-10-11T16:58:58.535Z,4.70
2022-10-11T17:01:27.146Z,4.80
2022-10-11T17:03:58.198Z,5.07
2022-10-11T17:06:26.900Z,4.88
2022-10-11T17:08:55.845Z,6.35
2022-10-11T17:11:24.639Z,5.93
2022-10-11T17:13:53.683Z,5.30
2022-10-11T17:16:22.113Z,5.93
2022-10-11T17:18:50.374Z,5.43
2022-10-11T17:21:21.326Z,5.57
2022-10-11T17:23:49.701Z,5.13
2022-10-11T17:26:21.248Z,6.07
2022-10-11T17:28:49.492Z,6.80
2022-10-11T17:31:18.363Z,8.50
2022-10-11T17:33:47.544Z,6.97
2022-10-11T17:36:20.503Z,7.32
2022-10-11T17:38:49.326Z,8.05
2022-10-11T17:41:18.088Z,7.88
2022-10-11T17:43:46.291Z,6.70
2022-10-11T17:46:15.630Z,7.90
2022-10-11T17:48:45.487Z,8.98
2022-10-11T17:51:16.891Z,13.70
2022-10-11T17:53:47.887Z,17.73
2022-10-11T17:56:20.979Z,25.80
2022-10-11T17:58:53.552Z,23.40
2022-10-11T18:01:23.887Z,31.50
2022-10-11T18:03:53.445Z,25.67
2022-10-11T18:06:21.663Z,26.45
2022-10-11T18:08:51.367Z,16.92
2022-10-11T18:11:20.739Z,15.38
2022-10-11T18:13:49.966Z,15.27
2022-10-11T18:16:20.193Z,15.32
2022-10-11T18:18:48.514Z,16.88
2022-10-11T18:21:18.513Z,16.20
2022-10-11T18:23:47.076Z,18.08
2022-10-11T18:26:18.643Z,18.33
2022-10-11T18:31:17.701Z,19.42
2022-10-11T18:33:46.615Z,20.50
2022-10-11T18:36:16.504Z,18.65
2022-10-11T18:38:47.211Z,16.85
2022-10-11T18:41:18.267Z,15.10
2022-10-11T18:43:50.499Z,14.68
2022-10-11T18:46:18.830Z,14.43
2022-10-11T18:48:48.514Z,14.35
2022-10-11T18:51:19.055Z,12.70
2022-10-11T18:53:47.596Z,14.60
2022-10-11T18:56:20.789Z,14.65
2022-10-11T18:58:50.471Z,13.93
2022-10-11T19:01:20.814Z,15.57
2022-10-11T19:03:52.484Z,14.57
2022-10-11T19:06:22.840Z,14.10
2022-10-11T19:08:55.042Z,14.05
2022-10-11T19:11:25.549Z,15.02
2022-10-11T19:13:57.927Z,14.52
2022-10-11T19:16:27.043Z,12.82
2022-10-11T19:18:55.395Z,13.65
2022-10-11T19:21:24.124Z,12.32
2022-10-11T19:23:52.444Z,11.40
2022-10-11T19:26:22.575Z,11.90
2022-10-11T19:28:58.317Z,10.45
2022-10-11T19:31:26.671Z,10.95
2022-10-11T19:33:57.091Z,10.23
2022-10-11T19:36:25.440Z,10.82
2022-10-11T19:38:56.805Z,11.40
2022-10-11T19:41:26.002Z,11.15
2022-10-11T19:43:58.168Z,10.48
2022-10-11T19:46:49.988Z,9.82
2022-10-11T19:49:20.399Z,10.15
2022-10-11T19:51:48.529Z,11.05
2022-10-11T19:54:17.550Z,11.75
2022-10-11T19:56:46.039Z,11.52
2022-10-11T19:59:15.786Z,12.68
2022-10-11T20:01:49.342Z,13.65
2022-10-11T20:04:46.984Z,12.60
2022-10-11T20:07:07.549Z,11.75
2022-10-11T20:09:35.872Z,11.10
2022-10-11T20:12:04.022Z,10.73
2022-10-11T20:14:33.748Z,10.40
2022-10-11T20:17:01.962Z,10.40
2022-10-11T20:19:31.239Z,9.75
2022-10-11T20:22:00.677Z,11.50
2022-10-11T20:24:33.048Z,11.27
2022-10-11T20:27:02.407Z,14.23
2022-10-11T20:29:30.764Z,15.15
2022-10-11T20:32:00.441Z,21.42
2022-10-11T20:34:28.981Z,20.65
2022-10-11T20:36:57.648Z,17.77
2022-10-11T20:39:26.105Z,17.52
2022-10-11T20:41:54.193Z,19.65
2022-10-11T20:44:22.514Z,21.30
2022-10-11T20:46:51.101Z,21.65
2022-10-11T20:49:22.553Z,24.00
2022-10-11T20:51:50.895Z,27.40
2022-10-11T20:54:19.132Z,30.55
2022-10-11T20:56:47.390Z,30.10
2022-10-11T20:59:15.627Z,30.00
2022-10-11T21:01:43.959Z,29.90
2022-10-11T21:04:18.834Z,28.55
2022-10-11T21:06:49.663Z,27.52
2022-10-11T21:09:19.225Z,27.27
2022-10-11T21:11:47.778Z,26.35
2022-10-11T21:14:16.194Z,27.13
2022-10-11T21:16:44.539Z,26.73
2022-10-11T21:19:15.369Z,24.75
2022-10-11T21:21:43.933Z,24.40
2022-10-11T21:24:13.684Z,25.67
2022-10-11T21:26:41.792Z,26.30
2022-10-11T21:29:10.376Z,25.33
2022-10-11T21:31:38.608Z,23.58
2022-10-11T21:34:07.451Z,22.73
2022-10-11T21:36:35.964Z,21.20
2022-10-11T21:39:04.357Z,21.30
2022-10-11T21:41:34.356Z,18.90
2022-10-11T21:44:02.630Z,20.38
2022-10-11T21:46:54.459Z,21.27
2022-10-11T21:49:20.671Z,18.17
2022-10-11T21:51:49.455Z,16.92
2022-10-11T21:54:17.968Z,16.38
2022-10-11T21:56:47.529Z,17.30
2022-10-11T21:59:15.782Z,17.17
2022-10-11T22:01:44.401Z,17.13
2022-10-11T22:04:12.766Z,16.60
2022-10-11T22:06:41.427Z,20.38
2022-10-11T22:09:09.943Z,20.40
2022-10-11T22:11:38.518Z,22.25
2022-10-11T22:14:08.019Z,22.70
2022-10-11T22:16:36.552Z,21.30
2022-10-11T22:19:04.934Z,24.63
2022-10-11T22:21:33.123Z,24.58
2022-10-11T22:24:01.380Z,22.65
2022-10-11T22:26:31.757Z,21.55
2022-10-11T22:29:00.504Z,21.35
2022-10-11T22:31:30.655Z,20.23
2022-10-11T22:34:00.182Z,18.50
2022-10-11T22:36:30.489Z,17.20
2022-10-11T22:38:59.241Z,17.38
2022-10-11T22:41:27.450Z,17.08
2022-10-11T22:43:55.757Z,17.10
2022-10-11T22:46:24.059Z,15.38
2022-10-11T22:48:54.193Z,16.90
2022-10-11T22:51:22.757Z,20.23
2022-10-11T22:53:50.809Z,17.42
2022-10-11T22:56:20.959Z,16.80
2022-10-11T22:58:49.195Z,16.90
2022-10-11T23:01:17.285Z,17.15
2022-10-11T23:03:49.151Z,16.02
2022-10-11T23:06:19.024Z,16.05
2022-10-11T23:08:47.242Z,15.57
2022-10-11T23:11:15.511Z,16.65
2022-10-11T23:13:43.760Z,17.98
2022-10-11T23:16:13.934Z,14.93
2022-10-11T23:18:42.399Z,14.63
2022-10-11T23:21:10.918Z,14.00
2022-10-11T23:23:40.682Z,12.35
2022-10-11T23:26:10.329Z,11.57
2022-10-11T23:28:38.719Z,13.88
2022-10-11T23:31:08.453Z,13.32
2022-10-11T23:33:36.661Z,13.00
2022-10-11T23:36:05.990Z,10.98
2022-10-11T23:38:34.191Z,12.48
2022-10-11T23:41:03.638Z,12.95
2022-10-11T23:43:32.029Z,11.48
2022-10-11T23:46:00.479Z,12.75
2022-10-11T23:48:28.771Z,13.95
2022-10-11T23:50:57.031Z,12.43
2022-10-11T23:53:25.380Z,12.93
2022-10-11T23:55:53.477Z,12.93
2022-10-11T23:58:23.209Z,14.18
